createdAt,value
2016-06-09T00:00:24.001Z,66.72
2016-06-09T00:00:55.079Z,66.82
2016-06-09T00:01:26.208Z,66.82
2016-06-09T00:01:57.286Z,66.82
2016-06-09T00:02:28.383Z,66.53
2016-06-09T00:03:02.508Z,66.91
2016-06-09T00:03:33.589Z,66.63
2016-06-09T00:04:04.683Z,66.91
2016-06-09T00:04:38.795Z,67.01
2016-06-09T00:05:12.889Z,66.91
2016-06-09T00:05:44.017Z,66.91
2016-06-09T00:06:15.142Z,66.91
2016-06-09T00:06:49.239Z,66.91
2016-06-09T00:07:20.320Z,66.43
2016-06-09T00:07:51.460Z,66.53
2016-06-09T00:08:25.574Z,66.33
2016-06-09T00:08:59.683Z,66.63
2016-06-09T00:09:30.779Z,66.63
2016-06-09T00:10:01.857Z,66.63
2016-06-09T00:10:32.955Z,66.91
2016-06-09T00:11:04.142Z,66.72
2016-06-09T00:11:38.238Z,66.63
2016-06-09T00:12:12.332Z,66.72
2016-06-09T00:12:46.444Z,66.91
2016-06-09T00:13:17.541Z,66.82
2016-06-09T00:13:51.775Z,66.33
2016-06-09T00:14:22.872Z,66.43
2016-06-09T00:14:54.028Z,66.24
2016-06-09T00:15:30.516Z,66.43
2016-06-09T00:16:01.641Z,66.72
2016-06-09T00:16:32.769Z,66.53
2016-06-09T00:17:03.862Z,66.43
2016-06-09T00:17:37.976Z,66.43
2016-06-09T00:18:09.116Z,66.05
2016-06-09T00:18:40.931Z,66.24
2016-06-09T00:19:11.572Z,66.05
2016-06-09T00:19:45.388Z,66.33
2016-06-09T00:20:19.500Z,66.24
2016-06-09T00:20:53.610Z,66.05
2016-06-09T00:21:27.722Z,66.24
2016-06-09T00:21:58.863Z,66.24
2016-06-09T00:22:29.960Z,66.24
2016-06-09T00:23:04.069Z,66.24
2016-06-09T00:23:38.214Z,66.43
2016-06-09T00:24:09.292Z,66.33
2016-06-09T00:24:40.372Z,66.33
2016-06-09T00:25:14.512Z,66.24
2016-06-09T00:25:48.640Z,66.33
2016-06-09T00:26:19.754Z,66.33
2016-06-09T00:26:53.832Z,66.24
2016-06-09T00:27:27.960Z,66.24
2016-06-09T00:28:02.069Z,66.14
2016-06-09T00:28:33.197Z,66.14
2016-06-09T00:29:07.291Z,66.05
2016-06-09T00:29:38.371Z,65.66
2016-06-09T00:30:09.481Z,65.66
2016-06-09T00:30:40.641Z,66.05
2016-06-09T00:31:11.719Z,65.66
2016-06-09T00:31:42.816Z,65.75
2016-06-09T00:32:16.925Z,66.24
2016-06-09T00:32:48.022Z,66.43
2016-06-09T00:33:22.165Z,66.05
2016-06-09T00:33:56.259Z,65.75
2016-06-09T00:34:27.340Z,65.95
2016-06-09T00:34:58.497Z,65.66
2016-06-09T00:35:29.610Z,65.56
2016-06-09T00:36:03.719Z,65.47
2016-06-09T00:36:34.815Z,65.47
2016-06-09T00:37:05.956Z,65.75
2016-06-09T00:37:40.021Z,66.05
2016-06-09T00:38:11.115Z,65.56
2016-06-09T00:38:45.244Z,65.56
2016-06-09T00:39:16.338Z,65.56
2016-06-09T00:39:47.418Z,65.56
2016-06-09T00:40:21.530Z,65.37
2016-06-09T00:40:55.624Z,65.75
2016-06-09T00:41:26.769Z,66.24
2016-06-09T00:41:57.878Z,65.56
2016-06-09T00:42:31.959Z,65.47
2016-06-09T00:43:03.084Z,65.56
2016-06-09T00:43:34.227Z,65.66
2016-06-09T00:44:08.320Z,65.47
2016-06-09T00:44:39.496Z,65.47
2016-06-09T00:45:13.637Z,65.85
2016-06-09T00:45:44.717Z,65.66
2016-06-09T00:46:15.826Z,66.14
2016-06-09T00:46:46.955Z,65.85
2016-06-09T00:47:18.099Z,65.85
2016-06-09T00:47:49.193Z,65.85
2016-06-09T00:48:20.274Z,65.66
2016-06-09T00:48:54.368Z,66.14
2016-06-09T00:49:28.464Z,66.05
2016-06-09T00:49:59.589Z,65.75
2016-06-09T00:50:30.733Z,65.56
2016-06-09T00:51:01.827Z,65.47
2016-06-09T00:51:35.971Z,65.56
2016-06-09T00:52:07.096Z,65.75
2016-06-09T00:52:38.208Z,65.85
2016-06-09T00:53:09.286Z,65.95
2016-06-09T00:53:40.399Z,66.05
2016-06-09T00:54:11.540Z,65.56
2016-06-09T00:54:42.637Z,64.98
2016-06-09T00:55:16.715Z,64.89
2016-06-09T00:55:50.842Z,65.27
2016-06-09T00:56:24.970Z,65.27
2016-06-09T00:56:56.079Z,65.27
2016-06-09T00:57:27.177Z,65.17
2016-06-09T00:57:58.255Z,65.17
2016-06-09T00:58:29.336Z,65.27
2016-06-09T00:59:03.477Z,64.98
2016-06-09T00:59:34.558Z,65.08
2016-06-09T01:00:05.636Z,64.98
2016-06-09T01:00:39.827Z,66.05
2016-06-09T01:01:11.061Z,65.17
2016-06-09T01:01:42.158Z,65.17
2016-06-09T01:02:16.298Z,65.47
2016-06-09T01:02:50.395Z,65.27
2016-06-09T01:03:24.539Z,65.75
2016-06-09T01:03:58.632Z,66.05
2016-06-09T01:04:29.760Z,65.37
2016-06-09T01:05:00.870Z,65.08
2016-06-09T01:05:31.968Z,65.17
2016-06-09T01:06:03.046Z,65.27
2016-06-09T01:06:34.173Z,65.27
2016-06-09T01:07:05.282Z,65.08
2016-06-09T01:07:39.394Z,65.27
2016-06-09T01:08:13.504Z,64.98
2016-06-09T01:08:44.601Z,65.08
2016-06-09T01:09:15.694Z,65.08
2016-06-09T01:09:46.808Z,65.08
2016-06-09T01:10:17.964Z,65.08
2016-06-09T01:10:52.061Z,65.17
2016-06-09T01:11:23.157Z,64.98
2016-06-09T01:11:54.314Z,64.98
2016-06-09T01:12:25.410Z,65.17
2016-06-09T01:12:56.489Z,65.27
2016-06-09T01:13:27.601Z,65.17
2016-06-09T01:13:58.695Z,65.08
2016-06-09T01:14:29.838Z,65.17
2016-06-09T01:15:00.932Z,65.08
2016-06-09T01:15:32.044Z,65.08
2016-06-09T01:16:03.154Z,64.98
2016-06-09T01:16:34.251Z,64.89
2016-06-09T01:17:05.391Z,65.08
2016-06-09T01:17:36.488Z,65.37
2016-06-09T01:18:07.566Z,65.08
2016-06-09T01:18:38.664Z,65.08
2016-06-09T01:19:09.804Z,64.89
2016-06-09T01:19:40.916Z,64.79
2016-06-09T01:20:12.072Z,64.89
2016-06-09T01:20:46.169Z,64.59
2016-06-09T01:21:17.325Z,64.69
2016-06-09T01:21:51.407Z,65.17
2016-06-09T01:22:25.535Z,64.69
2016-06-09T01:22:56.629Z,64.89
2016-06-09T01:23:27.709Z,64.89
2016-06-09T01:24:01.803Z,64.89
2016-06-09T01:24:32.932Z,64.69
2016-06-09T01:25:04.026Z,64.79
2016-06-09T01:25:38.154Z,64.79
2016-06-09T01:26:12.232Z,64.79
2016-06-09T01:26:43.375Z,64.59
2016-06-09T01:27:14.500Z,64.59
2016-06-09T01:27:45.580Z,64.79
2016-06-09T01:28:16.659Z,64.89
2016-06-09T01:28:47.756Z,64.79
2016-06-09T01:29:21.870Z,64.59
2016-06-09T01:29:53.026Z,64.79
2016-06-09T01:30:24.106Z,64.59
2016-06-09T01:30:58.231Z,64.5
2016-06-09T01:31:32.328Z,64.4
2016-06-09T01:32:06.437Z,64.21
2016-06-09T01:32:37.534Z,64.4
2016-06-09T01:33:11.706Z,64.69
2016-06-09T01:33:43.507Z,64.11
2016-06-09T01:34:17.319Z,64.21
2016-06-09T01:34:51.040Z,64.5
2016-06-09T01:35:25.137Z,64.4
2016-06-09T01:35:59.230Z,64.4
2016-06-09T01:36:30.344Z,64.28
2016-06-09T01:37:01.500Z,64.5
2016-06-09T01:37:32.611Z,64.47
2016-06-09T01:38:03.690Z,64.18
2016-06-09T01:38:37.803Z,64.59
2016-06-09T01:39:08.881Z,64.21
2016-06-09T01:39:42.978Z,64.47
2016-06-09T01:40:14.118Z,64.5
2016-06-09T01:40:45.215Z,64.28
2016-06-09T01:41:16.293Z,64.28
2016-06-09T01:41:50.406Z,64.31
2016-06-09T01:42:21.487Z,64.31
2016-06-09T01:42:55.612Z,64.11
2016-06-09T01:43:26.709Z,64.18
2016-06-09T01:43:57.787Z,64.4
2016-06-09T01:44:31.899Z,64.28
2016-06-09T01:45:06.008Z,63.98
2016-06-09T01:45:40.122Z,63.7
2016-06-09T01:46:11.200Z,64.11
2016-06-09T01:46:42.311Z,64.01
2016-06-09T01:47:13.405Z,63.82
2016-06-09T01:47:44.565Z,63.82
2016-06-09T01:48:15.659Z,63.98
2016-06-09T01:48:46.740Z,63.7
2016-06-09T01:49:20.837Z,63.79
2016-06-09T01:49:51.915Z,64.31
2016-06-09T01:50:23.027Z,64.11
2016-06-09T01:50:54.106Z,63.89
2016-06-09T01:51:28.234Z,63.79
2016-06-09T01:51:59.327Z,63.73
2016-06-09T01:52:30.408Z,63.7
2016-06-09T01:53:01.565Z,63.63
2016-06-09T01:53:32.755Z,63.4
2016-06-09T01:54:03.849Z,63.82
2016-06-09T01:54:37.945Z,63.7
2016-06-09T01:55:09.038Z,63.73
2016-06-09T01:55:40.136Z,63.73
2016-06-09T01:56:11.214Z,63.6
2016-06-09T01:56:42.342Z,63.7
2016-06-09T01:57:13.452Z,63.4
2016-06-09T01:57:44.548Z,63.5
2016-06-09T01:58:18.658Z,63.31
2016-06-09T01:58:49.755Z,63.34
2016-06-09T01:59:23.884Z,63.5
2016-06-09T01:59:57.977Z,63.24
2016-06-09T02:00:29.104Z,63.4
2016-06-09T02:01:00.214Z,63.31
2016-06-09T02:01:31.357Z,63.43
2016-06-09T02:02:02.451Z,63.34
2016-06-09T02:02:33.533Z,63.4
2016-06-09T02:03:07.643Z,63.31
2016-06-09T02:03:41.739Z,63.63
2016-06-09T02:04:12.849Z,63.5
2016-06-09T02:04:44.008Z,63.21
2016-06-09T02:05:15.086Z,63.43
2016-06-09T02:05:49.183Z,63.12
2016-06-09T02:06:20.308Z,63.4
2016-06-09T02:06:54.389Z,63.31
2016-06-09T02:07:28.501Z,63.21
2016-06-09T02:07:59.579Z,63.4
2016-06-09T02:08:33.707Z,63.5
2016-06-09T02:09:07.801Z,63.21
2016-06-09T02:09:38.898Z,63.21
2016-06-09T02:10:09.992Z,63.15
2016-06-09T02:10:41.151Z,63.12
2016-06-09T02:11:15.245Z,63.5
2016-06-09T02:11:49.341Z,63.21
2016-06-09T02:12:23.423Z,63.31
2016-06-09T02:12:57.579Z,63.24
2016-06-09T02:13:28.661Z,63.53
2016-06-09T02:14:02.770Z,63.5
2016-06-09T02:14:36.866Z,63.12
2016-06-09T02:15:11.007Z,63.4
2016-06-09T02:15:47.386Z,63.34
2016-06-09T02:16:18.495Z,63.53
2016-06-09T02:16:49.576Z,63.24
2016-06-09T02:17:23.657Z,63.12
2016-06-09T02:17:57.767Z,63.34
2016-06-09T02:18:29.159Z,63.31
2016-06-09T02:19:00.269Z,63.21
2016-06-09T02:19:31.038Z,63.31
2016-06-09T02:20:02.179Z,63.4
2016-06-09T02:20:36.276Z,63.12
2016-06-09T02:21:07.369Z,63.15
2016-06-09T02:21:38.512Z,63.15
2016-06-09T02:22:12.606Z,63.31
2016-06-09T02:22:46.719Z,63.05
2016-06-09T02:23:17.813Z,63.21
2016-06-09T02:23:51.925Z,63.53
2016-06-09T02:24:23.006Z,63.4
2016-06-09T02:24:54.085Z,63.5
2016-06-09T02:25:25.181Z,63.21
2016-06-09T02:25:59.291Z,63.4
2016-06-09T02:26:30.387Z,63.12
2016-06-09T02:27:04.497Z,63.21
2016-06-09T02:27:35.578Z,63.12
2016-06-09T02:28:06.672Z,63.12
2016-06-09T02:28:37.754Z,63.5
2016-06-09T02:29:08.879Z,63.21
2016-06-09T02:29:43.007Z,63.21
2016-06-09T02:30:14.101Z,63.6
2016-06-09T02:30:48.197Z,62.92
2016-06-09T02:31:22.294Z,63.21
2016-06-09T02:31:53.419Z,63.5
2016-06-09T02:32:24.578Z,63.31
2016-06-09T02:32:58.672Z,63.7
2016-06-09T02:33:32.800Z,63.5
2016-06-09T02:34:03.894Z,63.5
2016-06-09T02:34:35.194Z,63.5
2016-06-09T02:35:09.084Z,63.21
2016-06-09T02:35:43.181Z,63.5
2016-06-09T02:36:14.322Z,63.31
2016-06-09T02:36:45.418Z,63.4
2016-06-09T02:37:16.512Z,63.4
2016-06-09T02:37:50.625Z,63.02
2016-06-09T02:38:21.707Z,63.31
2016-06-09T02:38:55.816Z,63.4
2016-06-09T02:39:26.943Z,63.5
2016-06-09T02:40:01.037Z,63.31
2016-06-09T02:40:35.165Z,63.4
2016-06-09T02:41:09.243Z,63.5
2016-06-09T02:41:40.372Z,63.4
2016-06-09T02:42:11.513Z,63.31
2016-06-09T02:42:45.609Z,63.4
2016-06-09T02:43:16.719Z,63.31
2016-06-09T02:43:50.861Z,63.6
2016-06-09T02:44:24.990Z,63.4
2016-06-09T02:44:59.100Z,63.12
2016-06-09T02:45:30.180Z,63.4
2016-06-09T02:46:04.289Z,63.21
2016-06-09T02:46:38.387Z,63.79
2016-06-09T02:47:09.528Z,63.31
2016-06-09T02:47:43.640Z,63.31
2016-06-09T02:48:14.734Z,63.5
2016-06-09T02:48:49.189Z,63.5
2016-06-09T02:49:22.912Z,63.24
2016-06-09T02:49:54.021Z,63.5
2016-06-09T02:50:25.165Z,63.31
2016-06-09T02:50:56.258Z,63.5
2016-06-09T02:51:30.355Z,63.4
2016-06-09T02:52:04.480Z,63.21
2016-06-09T02:52:38.577Z,63.6
2016-06-09T02:53:12.717Z,63.7
2016-06-09T02:53:43.799Z,63.24
2016-06-09T02:54:14.892Z,63.89
2016-06-09T02:54:46.052Z,63.7
2016-06-09T02:55:17.145Z,63.34
2016-06-09T02:55:48.227Z,63.43
2016-06-09T02:56:22.339Z,63.53
2016-06-09T02:56:56.417Z,63.43
2016-06-09T02:57:27.498Z,63.31
2016-06-09T02:58:01.623Z,63.05
2016-06-09T02:58:32.705Z,63.21
2016-06-09T02:59:06.830Z,63.31
2016-06-09T02:59:40.911Z,63.24
2016-06-09T03:00:12.036Z,63.53
2016-06-09T03:00:43.179Z,63.12
2016-06-09T03:01:14.351Z,63.31
2016-06-09T03:01:45.433Z,63.21
2016-06-09T03:02:16.527Z,63.24
2016-06-09T03:02:47.655Z,63.21
2016-06-09T03:03:18.795Z,63.21
2016-06-09T03:03:52.892Z,63.4
2016-06-09T03:04:24.254Z,63.34
2016-06-09T03:04:55.114Z,63.02
2016-06-09T03:05:26.196Z,63.21
2016-06-09T03:05:57.290Z,63.15
2016-06-09T03:06:31.401Z,63.24
2016-06-09T03:07:02.495Z,63.02
2016-06-09T03:07:36.607Z,63.21
2016-06-09T03:08:10.717Z,63.43
2016-06-09T03:08:41.814Z,63.4
2016-06-09T03:09:12.892Z,63.21
2016-06-09T03:09:44.036Z,63.21
2016-06-09T03:10:15.145Z,63.34
2016-06-09T03:10:49.226Z,63.31
2016-06-09T03:11:20.366Z,63.53
2016-06-09T03:11:51.495Z,63.31
2016-06-09T03:12:22.589Z,63.5
2016-06-09T03:12:56.701Z,63.34
2016-06-09T03:13:27.845Z,63.02
2016-06-09T03:13:58.923Z,63.02
2016-06-09T03:14:30.003Z,63.21
2016-06-09T03:15:04.097Z,63.31
2016-06-09T03:15:35.179Z,63.31
2016-06-09T03:16:11.679Z,63.12
2016-06-09T03:16:42.760Z,63.12
2016-06-09T03:17:13.854Z,63.4
2016-06-09T03:17:47.998Z,63.21
2016-06-09T03:18:19.091Z,63.31
2016-06-09T03:18:50.188Z,63.21
2016-06-09T03:19:21.907Z,63.12
2016-06-09T03:19:52.754Z,63.12
2016-06-09T03:20:26.538Z,63.12
2016-06-09T03:20:57.663Z,63.4
2016-06-09T03:21:28.822Z,63.21
2016-06-09T03:22:02.900Z,63.12
2016-06-09T03:22:33.981Z,63.12
2016-06-09T03:23:05.106Z,63.4
2016-06-09T03:23:36.234Z,63.21
2016-06-09T03:24:10.328Z,63.31
2016-06-09T03:24:44.487Z,63.4
2016-06-09T03:25:15.581Z,62.95
2016-06-09T03:25:49.694Z,63.5
2016-06-09T03:26:20.788Z,63.24
2016-06-09T03:26:54.885Z,63.31
2016-06-09T03:27:26.043Z,63.31
2016-06-09T03:28:00.121Z,63.12
2016-06-09T03:28:34.266Z,63.4
2016-06-09T03:29:05.344Z,63.12
2016-06-09T03:29:36.425Z,63.31
2016-06-09T03:30:10.535Z,63.12
2016-06-09T03:30:41.616Z,63.02
2016-06-09T03:31:15.741Z,63.12
2016-06-09T03:31:46.837Z,63.02
2016-06-09T03:32:20.947Z,63.31
2016-06-09T03:32:55.060Z,63.21
2016-06-09T03:33:26.172Z,63.21
2016-06-09T03:33:57.265Z,63.31
2016-06-09T03:34:28.518Z,63.6
2016-06-09T03:34:59.503Z,63.21
2016-06-09T03:35:33.585Z,63.31
2016-06-09T03:36:07.710Z,63.21
2016-06-09T03:36:41.822Z,62.73
2016-06-09T03:37:15.947Z,63.31
2016-06-09T03:37:50.074Z,63.02
2016-06-09T03:38:24.156Z,63.21
2016-06-09T03:38:55.250Z,63.31
2016-06-09T03:39:29.394Z,63.31
2016-06-09T03:40:00.472Z,63.21
2016-06-09T03:40:34.615Z,63.12
2016-06-09T03:41:05.678Z,63.31
2016-06-09T03:41:36.774Z,63.21
2016-06-09T03:42:07.883Z,63.31
2016-06-09T03:42:42.012Z,63.12
2016-06-09T03:43:13.106Z,63.21
2016-06-09T03:43:44.187Z,63.21
2016-06-09T03:44:15.328Z,63.12
2016-06-09T03:44:46.424Z,63.21
2016-06-09T03:45:20.518Z,63.02
2016-06-09T03:45:51.646Z,63.21
2016-06-09T03:46:22.724Z,63.21
2016-06-09T03:46:56.837Z,63.31
2016-06-09T03:47:30.949Z,63.12
2016-06-09T03:48:05.074Z,63.12
2016-06-09T03:48:39.171Z,63.31
2016-06-09T03:49:10.311Z,63.12
2016-06-09T03:49:41.456Z,63.02
2016-06-09T03:50:12.518Z,63.12
2016-06-09T03:50:46.599Z,63.21
2016-06-09T03:51:17.739Z,63.02
2016-06-09T03:51:51.836Z,63.12
2016-06-09T03:52:25.934Z,63.31
2016-06-09T03:52:57.043Z,63.31
2016-06-09T03:53:28.140Z,63.02
2016-06-09T03:54:02.218Z,62.92
2016-06-09T03:54:33.314Z,63.21
2016-06-09T03:55:04.407Z,63.21
2016-06-09T03:55:35.521Z,63.12
2016-06-09T03:56:09.677Z,63.12
2016-06-09T03:56:40.758Z,63.12
2016-06-09T03:57:11.852Z,63.02
2016-06-09T03:57:45.964Z,63.21
2016-06-09T03:58:17.042Z,63.12
2016-06-09T03:58:51.124Z,63.21
2016-06-09T03:59:25.236Z,63.02
2016-06-09T03:59:56.361Z,63.31
2016-06-09T04:00:27.489Z,63.21
2016-06-09T04:00:58.567Z,63.31
2016-06-09T04:01:32.648Z,63.12
2016-06-09T04:02:03.804Z,63.02
2016-06-09T04:02:34.902Z,63.4
2016-06-09T04:03:05.965Z,63.12
2016-06-09T04:03:37.077Z,63.12
2016-06-09T04:04:08.202Z,63.6
2016-06-09T04:04:39.298Z,63.21
2016-06-09T04:05:10.407Z,63.21
2016-06-09T04:05:44.489Z,63.02
2016-06-09T04:06:15.661Z,63.21
2016-06-09T04:06:49.758Z,63.31
2016-06-09T04:07:23.867Z,63.12
2016-06-09T04:07:54.964Z,63.02
2016-06-09T04:08:29.075Z,62.73
2016-06-09T04:09:03.169Z,63.31
2016-06-09T04:09:37.298Z,63.12
2016-06-09T04:10:11.392Z,63.21
2016-06-09T04:10:45.520Z,63.31
2016-06-09T04:11:19.614Z,63.12
2016-06-09T04:11:50.773Z,63.31
2016-06-09T04:12:21.867Z,63.21
2016-06-09T04:12:52.948Z,63.6
2016-06-09T04:13:27.091Z,63.21
2016-06-09T04:13:58.185Z,63.31
2016-06-09T04:14:32.282Z,63.5
2016-06-09T04:15:03.407Z,63.31
2016-06-09T04:15:34.505Z,63.31
2016-06-09T04:16:05.598Z,63.5
2016-06-09T04:16:36.695Z,63.7
2016-06-09T04:17:10.820Z,63.31
2016-06-09T04:17:41.885Z,63.21
2016-06-09T04:18:12.978Z,63.4
2016-06-09T04:18:44.138Z,63.21
2016-06-09T04:19:18.888Z,63.02
2016-06-09T04:19:52.329Z,63.5
2016-06-09T04:20:23.423Z,63.21
2016-06-09T04:20:57.535Z,63.4
2016-06-09T04:21:31.631Z,63.4
2016-06-09T04:22:02.725Z,63.12
2016-06-09T04:22:33.869Z,63.12
2016-06-09T04:23:04.994Z,63.21
2016-06-09T04:23:36.060Z,63.5
2016-06-09T04:24:07.154Z,63.02
2016-06-09T04:24:38.235Z,63.21
2016-06-09T04:25:12.407Z,63.02
2016-06-09T04:25:46.488Z,63.21
2016-06-09T04:26:20.613Z,63.12
2016-06-09T04:26:54.725Z,63.21
2016-06-09T04:27:28.853Z,63.6
2016-06-09T04:27:59.931Z,63.5
2016-06-09T04:28:31.028Z,63.5
2016-06-09T04:29:02.184Z,63.12
2016-06-09T04:29:33.298Z,63.21
2016-06-09T04:30:04.391Z,63.02
2016-06-09T04:30:35.488Z,63.31
2016-06-09T04:31:06.629Z,63.31
2016-06-09T04:31:37.772Z,63.5
2016-06-09T04:32:11.866Z,63.31
2016-06-09T04:32:43.040Z,63.5
2016-06-09T04:33:14.181Z,63.4
2016-06-09T04:33:48.278Z,63.21
2016-06-09T04:34:19.357Z,63.12
2016-06-09T04:34:50.500Z,63.5
2016-06-09T04:35:21.610Z,63.21
2016-06-09T04:35:55.705Z,63.31
2016-06-09T04:36:26.819Z,63.21
2016-06-09T04:36:57.959Z,63.21
2016-06-09T04:37:32.056Z,63.12
2016-06-09T04:38:03.150Z,63.4
2016-06-09T04:38:34.278Z,63.5
2016-06-09T04:39:05.387Z,63.4
2016-06-09T04:39:39.500Z,63.6
2016-06-09T04:40:10.593Z,63.4
2016-06-09T04:40:41.706Z,63.31
2016-06-09T04:41:12.846Z,63.4
2016-06-09T04:41:43.943Z,63.21
2016-06-09T04:42:15.021Z,63.4
2016-06-09T04:42:46.102Z,63.7
2016-06-09T04:43:20.243Z,63.12
2016-06-09T04:43:51.325Z,63.31
2016-06-09T04:44:22.419Z,63.4
2016-06-09T04:44:53.546Z,63.5
2016-06-09T04:45:24.686Z,63.4
2016-06-09T04:45:55.768Z,63.5
2016-06-09T04:46:26.865Z,63.4
2016-06-09T04:46:57.943Z,63.5
2016-06-09T04:47:29.071Z,63.31
2016-06-09T04:48:03.181Z,63.31
2016-06-09T04:48:34.277Z,64.08
2016-06-09T04:49:05.355Z,63.31
2016-06-09T04:49:36.484Z,63.4
2016-06-09T04:50:07.624Z,63.4
2016-06-09T04:50:38.705Z,63.31
2016-06-09T04:51:12.815Z,63.31
2016-06-09T04:51:43.943Z,63.5
2016-06-09T04:52:15.021Z,63.5
2016-06-09T04:52:49.133Z,63.6
2016-06-09T04:53:20.274Z,63.4
2016-06-09T04:53:51.355Z,63.79
2016-06-09T04:54:25.449Z,63.5
2016-06-09T04:54:56.608Z,63.5
2016-06-09T04:55:27.705Z,63.21
2016-06-09T04:56:01.783Z,63.5
2016-06-09T04:56:35.973Z,63.5
2016-06-09T04:57:10.098Z,63.5
2016-06-09T04:57:41.196Z,63.6
2016-06-09T04:58:15.321Z,63.21
2016-06-09T04:58:46.465Z,63.5
2016-06-09T04:59:17.605Z,63.4
2016-06-09T04:59:48.701Z,63.5
2016-06-09T05:00:19.779Z,63.31
2016-06-09T05:00:50.861Z,63.5
2016-06-09T05:01:24.971Z,63.31
2016-06-09T05:01:56.068Z,63.5
2016-06-09T05:02:30.211Z,63.5
2016-06-09T05:03:04.289Z,63.31
2016-06-09T05:03:35.402Z,63.7
2016-06-09T05:04:06.792Z,63.6
2016-06-09T05:04:37.747Z,63.12
2016-06-09T05:05:11.763Z,63.5
2016-06-09T05:05:42.876Z,63.5
2016-06-09T05:06:14.001Z,63.5
2016-06-09T05:06:45.098Z,63.6
2016-06-09T05:07:19.192Z,63.21
2016-06-09T05:07:50.336Z,63.6
2016-06-09T05:08:24.445Z,63.7
2016-06-09T05:08:58.558Z,63.5
2016-06-09T05:09:29.638Z,63.79
2016-06-09T05:10:00.717Z,63.5
2016-06-09T05:10:31.813Z,63.7
2016-06-09T05:11:05.954Z,63.7
2016-06-09T05:11:37.052Z,63.7
2016-06-09T05:12:08.130Z,63.79
2016-06-09T05:12:42.242Z,63.7
2016-06-09T05:13:13.336Z,63.79
2016-06-09T05:13:44.432Z,63.79
2016-06-09T05:14:15.588Z,63.6
2016-06-09T05:14:46.670Z,63.7
2016-06-09T05:15:20.733Z,63.5
2016-06-09T05:15:51.861Z,63.6
2016-06-09T05:16:28.285Z,63.5
2016-06-09T05:17:02.442Z,63.7
2016-06-09T05:17:33.538Z,63.6
2016-06-09T05:18:04.617Z,63.31
2016-06-09T05:18:38.745Z,63.5
2016-06-09T05:19:12.838Z,63.89
2016-06-09T05:19:44.263Z,63.79
2016-06-09T05:20:18.513Z,63.79
2016-06-09T05:20:49.188Z,63.79
2016-06-09T05:21:20.329Z,63.89
2016-06-09T05:21:54.457Z,63.98
2016-06-09T05:22:28.585Z,63.7
2016-06-09T05:23:02.678Z,63.79
2016-06-09T05:23:33.791Z,63.5
2016-06-09T05:24:07.916Z,63.89
2016-06-09T05:24:39.013Z,63.7
2016-06-09T05:25:13.106Z,63.79
2016-06-09T05:25:47.220Z,63.79
2016-06-09T05:26:18.313Z,63.89
2016-06-09T05:26:49.473Z,63.79
2016-06-09T05:27:20.535Z,64.08
2016-06-09T05:27:51.663Z,64.47
2016-06-09T05:28:25.773Z,63.89
2016-06-09T05:28:59.868Z,63.79
2016-06-09T05:29:30.966Z,63.73
2016-06-09T05:30:02.107Z,63.89
2016-06-09T05:30:33.235Z,63.89
2016-06-09T05:31:07.313Z,64.28
2016-06-09T05:31:38.441Z,63.79
2016-06-09T05:32:12.581Z,63.89
2016-06-09T05:32:46.709Z,63.98
2016-06-09T05:33:17.834Z,63.79
2016-06-09T05:33:48.994Z,63.79
2016-06-09T05:34:23.166Z,63.79
2016-06-09T05:34:54.762Z,63.89
2016-06-09T05:35:28.360Z,64.37
2016-06-09T05:36:02.469Z,63.89
2016-06-09T05:36:36.659Z,64.18
2016-06-09T05:37:10.846Z,64.37
2016-06-09T05:37:41.974Z,64.28
2016-06-09T05:38:16.115Z,63.79
2016-06-09T05:38:50.227Z,64.28
2016-06-09T05:39:21.337Z,63.98
2016-06-09T05:39:52.435Z,64.28
2016-06-09T05:40:23.513Z,63.7
2016-06-09T05:40:57.656Z,63.79
2016-06-09T05:41:28.784Z,63.98
2016-06-09T05:42:02.941Z,64.18
2016-06-09T05:42:34.022Z,63.79
2016-06-09T05:43:05.115Z,64.08
2016-06-09T05:43:39.211Z,64.47
2016-06-09T05:44:13.289Z,64.47
2016-06-09T05:44:47.418Z,64.18
2016-06-09T05:45:18.512Z,64.28
2016-06-09T05:45:49.592Z,64.66
2016-06-09T05:46:20.702Z,64.18
2016-06-09T05:46:51.862Z,64.56
2016-06-09T05:47:22.940Z,64.37
2016-06-09T05:47:54.021Z,64.37
2016-06-09T05:48:28.177Z,64.28
2016-06-09T05:48:59.274Z,64.37
2016-06-09T05:49:33.355Z,64.18
2016-06-09T05:50:04.480Z,64.37
2016-06-09T05:50:35.561Z,64.18
2016-06-09T05:51:06.639Z,64.28
2016-06-09T05:51:37.736Z,64.47
2016-06-09T05:52:11.846Z,64.28
2016-06-09T05:52:42.927Z,64.18
2016-06-09T05:53:17.020Z,64.37
2016-06-09T05:53:48.117Z,64.47
2016-06-09T05:54:22.227Z,64.37
2016-06-09T05:54:56.340Z,64.37
2016-06-09T05:55:27.606Z,64.28
2016-06-09T05:55:58.749Z,64.18
2016-06-09T05:56:29.907Z,64.56
2016-06-09T05:57:04.017Z,64.28
2016-06-09T05:57:38.177Z,64.37
2016-06-09T05:58:09.271Z,64.37
2016-06-09T05:58:40.352Z,64.28
2016-06-09T05:59:11.446Z,64.28
2016-06-09T05:59:42.589Z,64.47
2016-06-09T06:00:13.683Z,64.37
2016-06-09T06:00:47.764Z,64.47
2016-06-09T06:01:18.889Z,64.37
2016-06-09T06:01:52.987Z,64.37
2016-06-09T06:02:24.081Z,64.18
2016-06-09T06:02:55.176Z,64.47
2016-06-09T06:03:26.317Z,64.28
2016-06-09T06:04:00.415Z,64.47
2016-06-09T06:04:31.511Z,64.37
2016-06-09T06:05:02.651Z,64.28
2016-06-09T06:05:34.014Z,64.18
2016-06-09T06:06:04.826Z,64.28
2016-06-09T06:06:35.907Z,64.37
2016-06-09T06:07:07.017Z,64.37
2016-06-09T06:07:38.160Z,64.28
2016-06-09T06:08:12.238Z,64.47
2016-06-09T06:08:46.351Z,64.37
2016-06-09T06:09:20.444Z,64.37
2016-06-09T06:09:51.589Z,64.18
2016-06-09T06:10:22.698Z,64.18
2016-06-09T06:10:53.780Z,64.37
2016-06-09T06:11:24.858Z,64.37
2016-06-09T06:11:58.986Z,64.47
2016-06-09T06:12:30.067Z,64.08
2016-06-09T06:13:01.145Z,64.37
2016-06-09T06:13:32.273Z,64.28
2016-06-09T06:14:06.382Z,64.08
2016-06-09T06:14:37.463Z,64.37
2016-06-09T06:15:08.573Z,64.37
2016-06-09T06:15:42.685Z,64.37
2016-06-09T06:16:19.123Z,64.08
2016-06-09T06:16:53.188Z,64.47
2016-06-09T06:17:24.298Z,64.37
2016-06-09T06:17:55.441Z,64.18
2016-06-09T06:18:29.555Z,64.37
2016-06-09T06:19:00.664Z,64.18
2016-06-09T06:19:31.792Z,64.08
2016-06-09T06:20:02.886Z,64.08
2016-06-09T06:20:34.420Z,64.56
2016-06-09T06:21:05.061Z,64.37
2016-06-09T06:21:36.157Z,64.47
2016-06-09T06:22:07.314Z,64.66
2016-06-09T06:22:38.395Z,64.66
2016-06-09T06:23:12.504Z,64.56
2016-06-09T06:23:43.632Z,64.18
2016-06-09T06:24:14.710Z,64.56
2016-06-09T06:24:48.807Z,64.66
2016-06-09T06:25:19.963Z,64.47
2016-06-09T06:25:51.044Z,64.28
2016-06-09T06:26:22.138Z,64.56
2016-06-09T06:26:56.235Z,64.37
2016-06-09T06:27:27.344Z,64.37
2016-06-09T06:27:58.425Z,64.56
2016-06-09T06:28:29.519Z,64.37
2016-06-09T06:29:00.663Z,64.47
2016-06-09T06:29:31.760Z,64.56
2016-06-09T06:30:02.839Z,64.56
2016-06-09T06:30:36.950Z,64.56
2016-06-09T06:31:08.028Z,64.56
2016-06-09T06:31:39.109Z,64.56
2016-06-09T06:32:10.219Z,64.95
2016-06-09T06:32:41.362Z,64.66
2016-06-09T06:33:15.456Z,64.76
2016-06-09T06:33:46.569Z,64.47
2016-06-09T06:34:17.710Z,64.66
2016-06-09T06:34:51.806Z,64.28
2016-06-09T06:35:25.899Z,64.56
2016-06-09T06:35:56.997Z,64.37
2016-06-09T06:36:31.125Z,64.66
2016-06-09T06:37:05.250Z,64.47
2016-06-09T06:37:36.363Z,64.37
2016-06-09T06:38:07.534Z,64.47
2016-06-09T06:38:38.616Z,64.86
2016-06-09T06:39:12.709Z,64.86
2016-06-09T06:39:43.869Z,64.86
2016-06-09T06:40:17.978Z,64.66
2016-06-09T06:40:52.106Z,64.76
2016-06-09T06:41:23.247Z,64.47
2016-06-09T06:41:54.343Z,64.47
2016-06-09T06:42:25.453Z,64.56
2016-06-09T06:42:56.581Z,64.66
2016-06-09T06:43:28.956Z,64.66
2016-06-09T06:43:58.803Z,64.66
2016-06-09T06:44:32.915Z,64.76
2016-06-09T06:45:04.118Z,64.47
2016-06-09T06:45:35.183Z,64.47
2016-06-09T06:46:06.355Z,64.66
2016-06-09T06:46:40.436Z,65.05
2016-06-09T06:47:11.546Z,65.24
2016-06-09T06:47:45.659Z,64.86
2016-06-09T06:48:19.753Z,64.76
2016-06-09T06:48:53.850Z,64.76
2016-06-09T06:49:24.959Z,64.76
2016-06-09T06:49:56.040Z,64.95
2016-06-09T06:50:27.181Z,64.66
2016-06-09T06:50:58.293Z,64.76
2016-06-09T06:51:29.387Z,64.76
2016-06-09T06:52:03.483Z,65.37
2016-06-09T06:52:34.627Z,65.37
2016-06-09T06:53:05.705Z,64.98
2016-06-09T06:53:36.802Z,65.17
2016-06-09T06:54:07.896Z,65.08
2016-06-09T06:54:39.040Z,64.98
2016-06-09T06:55:10.165Z,65.08
2016-06-09T06:55:44.246Z,65.08
2016-06-09T06:56:15.355Z,64.98
2016-06-09T06:56:49.483Z,65.27
2016-06-09T06:57:23.577Z,64.79
2016-06-09T06:57:54.736Z,64.89